createdAt,value
2016-12-25T00:00:36.070Z,0
2016-12-25T00:01:47.054Z,0
2016-12-25T00:02:58.289Z,0
2016-12-25T00:04:09.274Z,0
2016-12-25T00:05:20.262Z,0
2016-12-25T00:06:31.252Z,0
2016-12-25T00:07:42.440Z,0
2016-12-25T00:08:53.879Z,0
2016-12-25T00:10:05.064Z,0
2016-12-25T00:11:16.048Z,0
2016-12-25T00:12:27.235Z,0
2016-12-25T00:13:38.218Z,0
2016-12-25T00:14:49.253Z,0
2016-12-25T00:16:00.242Z,0
2016-12-25T00:17:11.224Z,0
2016-12-25T00:18:22.417Z,0
2016-12-25T00:19:33.408Z,0
2016-12-25T00:20:44.445Z,0
2016-12-25T00:21:55.455Z,0
2016-12-25T00:23:06.637Z,0
2016-12-25T00:24:17.623Z,0
2016-12-25T00:25:28.593Z,0
2016-12-25T00:26:39.648Z,0
2016-12-25T00:27:50.644Z,0
2016-12-25T00:29:01.627Z,0
2016-12-25T00:30:12.608Z,0
2016-12-25T00:31:23.591Z,0
2016-12-25T00:32:34.629Z,0
2016-12-25T00:33:45.618Z,0
2016-12-25T00:34:56.599Z,0
2016-12-25T00:36:07.576Z,0
2016-12-25T00:37:18.565Z,0
2016-12-25T00:38:29.604Z,0
2016-12-25T00:39:40.621Z,0
2016-12-25T00:40:51.612Z,0
2016-12-25T00:42:02.604Z,0
2016-12-25T00:43:13.587Z,0
2016-12-25T00:44:24.822Z,0
2016-12-25T00:45:35.843Z,0
2016-12-25T00:46:46.818Z,0
2016-12-25T00:47:58.010Z,0
2016-12-25T00:49:08.997Z,0
2016-12-25T00:50:20.037Z,0
2016-12-25T00:51:31.011Z,0
2016-12-25T00:52:41.999Z,0
2016-12-25T00:53:52.987Z,0
2016-12-25T00:55:03.972Z,0
2016-12-25T00:56:15.002Z,0
2016-12-25T00:57:25.985Z,0
2016-12-25T00:58:37.173Z,0
2016-12-25T00:59:48.153Z,0
2016-12-25T01:00:59.148Z,0
2016-12-25T01:02:10.188Z,0
2016-12-25T01:03:21.174Z,0
2016-12-25T01:04:32.159Z,0
2016-12-25T01:05:43.161Z,0
2016-12-25T01:06:54.170Z,0
2016-12-25T01:08:05.209Z,0
2016-12-25T01:09:16.241Z,0
2016-12-25T01:10:27.225Z,0
2016-12-25T01:11:38.213Z,0
2016-12-25T01:12:49.197Z,0
2016-12-25T01:14:00.238Z,0
2016-12-25T01:15:11.230Z,0
2016-12-25T01:16:22.211Z,0
2016-12-25T01:17:33.402Z,0
2016-12-25T01:18:44.389Z,0
2016-12-25T01:19:55.423Z,0
2016-12-25T01:21:06.411Z,0
2016-12-25T01:22:17.400Z,0
2016-12-25T01:23:28.394Z,0
2016-12-25T01:24:39.381Z,0
2016-12-25T01:25:50.359Z,0
2016-12-25T01:27:01.348Z,0
2016-12-25T01:28:12.341Z,0
2016-12-25T01:29:23.325Z,0
2016-12-25T01:30:34.314Z,0
2016-12-25T01:31:45.308Z,0
2016-12-25T01:32:56.296Z,0
2016-12-25T01:34:07.285Z,0
2016-12-25T01:35:18.476Z,0
2016-12-25T01:36:29.455Z,0
2016-12-25T01:37:40.642Z,0
2016-12-25T01:38:51.632Z,0
2016-12-25T01:40:02.669Z,0
2016-12-25T01:41:13.652Z,0
2016-12-25T01:42:24.835Z,0
2016-12-25T01:43:35.830Z,0
2016-12-25T01:44:46.826Z,0
2016-12-25T01:45:57.842Z,0
2016-12-25T01:47:08.823Z,0
2016-12-25T01:48:20.020Z,0
2016-12-25T01:49:31.008Z,0
2016-12-25T01:50:42.025Z,0
2016-12-25T01:51:53.011Z,0
2016-12-25T01:53:03.996Z,0
2016-12-25T01:54:14.990Z,0
2016-12-25T01:55:25.974Z,0
2016-12-25T01:56:36.956Z,0
2016-12-25T01:57:47.945Z,0
2016-12-25T01:58:59.131Z,0
2016-12-25T02:00:10.369Z,0
2016-12-25T02:01:21.361Z,0
2016-12-25T02:02:32.549Z,0
2016-12-25T02:03:43.542Z,0
2016-12-25T02:04:54.532Z,0
2016-12-25T02:06:05.518Z,0
2016-12-25T02:07:16.700Z,0
2016-12-25T02:08:27.685Z,0
2016-12-25T02:09:38.671Z,0
2016-12-25T02:10:49.648Z,0
2016-12-25T02:12:00.841Z,0
2016-12-25T02:13:11.837Z,0
2016-12-25T02:14:23.022Z,0
2016-12-25T02:15:34.006Z,0
2016-12-25T02:16:45.188Z,0
2016-12-25T02:17:56.177Z,0
2016-12-25T02:19:07.162Z,0
2016-12-25T02:20:18.147Z,0
2016-12-25T02:21:29.135Z,0
2016-12-25T02:22:40.118Z,0
2016-12-25T02:23:51.109Z,0
2016-12-25T02:25:02.093Z,0
2016-12-25T02:26:13.082Z,0
2016-12-25T02:27:24.066Z,0
2016-12-25T02:28:35.051Z,0
2016-12-25T02:29:46.029Z,0
2016-12-25T02:30:57.218Z,0
2016-12-25T02:32:08.411Z,0
2016-12-25T02:33:19.400Z,0
2016-12-25T02:34:30.380Z,0
2016-12-25T02:35:41.372Z,0
2016-12-25T02:36:52.364Z,0
2016-12-25T02:38:03.350Z,0
2016-12-25T02:39:14.331Z,0
2016-12-25T02:40:25.323Z,0
2016-12-25T02:41:36.318Z,0
2016-12-25T02:42:47.300Z,0
2016-12-25T02:43:58.282Z,0
2016-12-25T02:45:09.273Z,0
2016-12-25T02:46:20.269Z,0
2016-12-25T02:47:31.252Z,0
2016-12-25T02:48:42.267Z,0
2016-12-25T02:49:53.279Z,0
2016-12-25T02:51:04.496Z,0
2016-12-25T02:52:15.474Z,0
2016-12-25T02:53:26.489Z,0
2016-12-25T02:54:37.473Z,0
2016-12-25T02:55:48.491Z,0
2016-12-25T02:56:59.472Z,0
2016-12-25T02:58:10.665Z,0
2016-12-25T02:59:21.646Z,0
2016-12-25T03:00:32.684Z,0
2016-12-25T03:01:43.682Z,0
2016-12-25T03:02:54.666Z,0
2016-12-25T03:04:05.655Z,0
2016-12-25T03:05:16.841Z,0
2016-12-25T03:06:27.838Z,0
2016-12-25T03:07:39.018Z,0
2016-12-25T03:08:50.010Z,0
2016-12-25T03:10:00.998Z,0
2016-12-25T03:11:12.396Z,0
2016-12-25T03:12:23.382Z,0
2016-12-25T03:13:34.589Z,0
2016-12-25T03:14:45.575Z,0
2016-12-25T03:15:56.559Z,0
2016-12-25T03:17:07.542Z,0
2016-12-25T03:18:18.536Z,0
2016-12-25T03:19:29.524Z,0
2016-12-25T03:20:40.516Z,0
2016-12-25T03:21:51.702Z,0
2016-12-25T03:23:02.686Z,0
2016-12-25T03:24:13.673Z,0
2016-12-25T03:25:24.866Z,0
2016-12-25T03:26:35.843Z,0
2016-12-25T03:27:47.028Z,0
2016-12-25T03:28:58.218Z,0
2016-12-25T03:30:09.406Z,0
2016-12-25T03:31:20.402Z,0
2016-12-25T03:32:31.395Z,0
2016-12-25T03:33:42.376Z,0
2016-12-25T03:34:53.363Z,0
2016-12-25T03:36:04.349Z,0
2016-12-25T03:37:15.534Z,0
2016-12-25T03:38:26.524Z,0
2016-12-25T03:39:37.716Z,0
2016-12-25T03:40:48.705Z,0
2016-12-25T03:41:59.718Z,0
2016-12-25T03:43:10.703Z,0
2016-12-25T03:44:21.895Z,0
2016-12-25T03:45:32.886Z,0
2016-12-25T03:46:44.077Z,0
2016-12-25T03:47:55.062Z,0
2016-12-25T03:49:06.445Z,0
2016-12-25T03:50:17.481Z,0
2016-12-25T03:51:28.473Z,0
2016-12-25T03:52:39.660Z,0
2016-12-25T03:53:50.651Z,0
2016-12-25T03:55:01.635Z,0
2016-12-25T03:56:12.702Z,0
2016-12-25T03:57:23.685Z,0
2016-12-25T03:58:34.673Z,0
2016-12-25T03:59:45.858Z,0
2016-12-25T04:00:56.840Z,0
2016-12-25T04:02:07.877Z,0
2016-12-25T04:03:18.862Z,0
2016-12-25T04:04:29.844Z,0
2016-12-25T04:05:40.832Z,0
2016-12-25T04:06:51.820Z,0
2016-12-25T04:08:02.855Z,0
2016-12-25T04:09:13.846Z,0
2016-12-25T04:10:24.843Z,0
2016-12-25T04:11:36.035Z,0
2016-12-25T04:12:47.026Z,0
2016-12-25T04:13:58.267Z,0
2016-12-25T04:15:09.259Z,0
2016-12-25T04:16:20.437Z,0
2016-12-25T04:17:31.425Z,0
2016-12-25T04:18:42.411Z,0
2016-12-25T04:19:53.449Z,0
2016-12-25T04:21:04.628Z,0
2016-12-25T04:22:15.852Z,0
2016-12-25T04:23:26.838Z,0
2016-12-25T04:24:37.821Z,0
2016-12-25T04:25:48.817Z,0
2016-12-25T04:26:59.794Z,0
2016-12-25T04:28:10.776Z,0
2016-12-25T04:29:21.760Z,0
2016-12-25T04:30:32.955Z,0
2016-12-25T04:31:44.139Z,0
2016-12-25T04:32:55.130Z,0
2016-12-25T04:34:06.118Z,0
2016-12-25T04:35:17.305Z,0
2016-12-25T04:36:28.293Z,0
2016-12-25T04:37:39.281Z,0
2016-12-25T04:38:50.269Z,0
2016-12-25T04:40:01.454Z,0
2016-12-25T04:41:12.439Z,0
2016-12-25T04:42:23.619Z,0
2016-12-25T04:43:34.610Z,0
2016-12-25T04:44:45.599Z,0
2016-12-25T04:45:56.612Z,0
2016-12-25T04:47:07.599Z,0
2016-12-25T04:48:18.586Z,0
2016-12-25T04:49:29.573Z,0
2016-12-25T04:50:40.564Z,0
2016-12-25T04:51:51.749Z,0
2016-12-25T04:53:02.733Z,0
2016-12-25T04:54:13.719Z,0
2016-12-25T04:55:24.706Z,0
2016-12-25T04:56:35.701Z,0
2016-12-25T04:57:46.685Z,0
2016-12-25T04:58:57.675Z,0
2016-12-25T05:00:08.669Z,0
2016-12-25T05:01:19.655Z,0
2016-12-25T05:02:30.642Z,0
2016-12-25T05:03:41.829Z,0
2016-12-25T05:04:53.017Z,0
2016-12-25T05:06:04.002Z,0
2016-12-25T05:07:14.986Z,0
2016-12-25T05:08:25.967Z,0
2016-12-25T05:09:37.164Z,0
2016-12-25T05:10:48.162Z,0
2016-12-25T05:11:59.342Z,0
2016-12-25T05:13:10.534Z,0
2016-12-25T05:14:21.517Z,0
2016-12-25T05:15:32.499Z,0
2016-12-25T05:16:43.491Z,0
2016-12-25T05:17:54.466Z,0
2016-12-25T05:19:05.459Z,0
2016-12-25T05:20:16.441Z,0
2016-12-25T05:21:27.630Z,0
2016-12-25T05:22:38.625Z,0
2016-12-25T05:23:49.613Z,0
2016-12-25T05:25:00.631Z,0
2016-12-25T05:26:11.669Z,0
2016-12-25T05:27:22.847Z,0
2016-12-25T05:28:34.022Z,0
2016-12-25T05:29:45.016Z,0
2016-12-25T05:30:56.210Z,0
2016-12-25T05:32:07.197Z,0
2016-12-25T05:33:18.397Z,0
2016-12-25T05:34:29.377Z,0
2016-12-25T05:35:40.364Z,0
2016-12-25T05:36:51.547Z,0
2016-12-25T05:38:02.535Z,0
2016-12-25T05:39:13.543Z,0
2016-12-25T05:40:24.523Z,0
2016-12-25T05:41:35.712Z,0
2016-12-25T05:42:46.699Z,0
2016-12-25T05:43:57.688Z,0
2016-12-25T05:45:08.679Z,0
2016-12-25T05:46:19.873Z,0
2016-12-25T05:47:30.859Z,0
2016-12-25T05:48:41.848Z,0
2016-12-25T05:49:52.833Z,0
2016-12-25T05:51:03.819Z,0
2016-12-25T05:52:15.008Z,0
2016-12-25T05:53:25.992Z,0
2016-12-25T05:54:36.979Z,0
2016-12-25T05:55:47.966Z,0
2016-12-25T05:56:59.167Z,0
2016-12-25T05:58:10.348Z,0
2016-12-25T05:59:21.337Z,0
2016-12-25T06:00:32.528Z,0
2016-12-25T06:01:43.715Z,0
2016-12-25T06:02:54.698Z,0
2016-12-25T06:04:05.685Z,0
2016-12-25T06:05:16.669Z,0
2016-12-25T06:06:27.658Z,0
2016-12-25T06:07:38.642Z,0
2016-12-25T06:08:49.658Z,0
2016-12-25T06:10:00.639Z,0
2016-12-25T06:11:11.886Z,0
2016-12-25T06:12:22.877Z,0
2016-12-25T06:13:34.069Z,0
2016-12-25T06:14:45.058Z,0
2016-12-25T06:15:56.041Z,0
2016-12-25T06:17:07.033Z,0
2016-12-25T06:18:18.225Z,0
2016-12-25T06:19:29.245Z,0
2016-12-25T06:20:40.287Z,0
2016-12-25T06:21:51.270Z,0
2016-12-25T06:23:02.259Z,0
2016-12-25T06:24:13.246Z,0
2016-12-25T06:25:24.280Z,0
2016-12-25T06:26:35.279Z,0
2016-12-25T06:27:46.270Z,0
2016-12-25T06:28:57.257Z,0
2016-12-25T06:30:08.253Z,0
2016-12-25T06:31:19.286Z,0
2016-12-25T06:32:30.480Z,0
2016-12-25T06:33:42.072Z,0
2016-12-25T06:34:53.067Z,0
2016-12-25T06:36:04.045Z,0
2016-12-25T06:37:15.083Z,0
2016-12-25T06:38:26.073Z,0
2016-12-25T06:39:37.056Z,0
2016-12-25T06:40:48.041Z,0
2016-12-25T06:41:59.030Z,0
2016-12-25T06:43:10.271Z,0
2016-12-25T06:44:21.261Z,0
2016-12-25T06:45:32.243Z,0
2016-12-25T06:46:43.226Z,0
2016-12-25T06:47:54.221Z,0
2016-12-25T06:49:05.257Z,0
2016-12-25T06:50:16.242Z,0
2016-12-25T06:51:27.226Z,0
2016-12-25T06:52:38.207Z,0
2016-12-25T06:53:49.191Z,0
2016-12-25T06:55:00.221Z,0
2016-12-25T06:56:11.217Z,0
2016-12-25T06:57:22.200Z,0
2016-12-25T06:58:33.392Z,0
2016-12-25T06:59:44.405Z,0
2016-12-25T07:00:55.449Z,0
2016-12-25T07:02:06.435Z,0
2016-12-25T07:03:17.431Z,0
2016-12-25T07:04:28.425Z,0
2016-12-25T07:05:39.633Z,0
2016-12-25T07:06:50.664Z,0
2016-12-25T07:08:01.649Z,0
2016-12-25T07:09:12.639Z,0
2016-12-25T07:10:23.619Z,0
2016-12-25T07:11:34.602Z,0
2016-12-25T07:12:45.644Z,0
2016-12-25T07:13:56.832Z,0
2016-12-25T07:15:07.827Z,0
2016-12-25T07:16:19.038Z,0
2016-12-25T07:17:30.020Z,0
2016-12-25T07:18:41.066Z,4
2016-12-25T07:19:52.261Z,4
2016-12-25T07:21:03.251Z,4
2016-12-25T07:22:14.432Z,4
2016-12-25T07:23:25.435Z,4
2016-12-25T07:24:36.669Z,4
2016-12-25T07:25:47.650Z,4
2016-12-25T07:26:58.627Z,4
2016-12-25T07:28:09.616Z,8
2016-12-25T07:29:20.803Z,4
2016-12-25T07:30:31.830Z,8
2016-12-25T07:31:42.821Z,8
2016-12-25T07:32:53.829Z,12
2016-12-25T07:34:04.813Z,16
2016-12-25T07:35:15.797Z,16
2016-12-25T07:36:26.834Z,20
2016-12-25T07:37:37.830Z,24
2016-12-25T07:38:48.816Z,28
2016-12-25T07:39:59.802Z,28
2016-12-25T07:41:10.791Z,32
2016-12-25T07:42:21.825Z,40
2016-12-25T07:43:32.808Z,52
2016-12-25T07:44:43.796Z,48
2016-12-25T07:45:54.810Z,52
2016-12-25T07:47:05.798Z,52
2016-12-25T07:48:17.228Z,60
2016-12-25T07:49:28.219Z,60
2016-12-25T07:50:39.408Z,56
2016-12-25T07:51:50.394Z,72
2016-12-25T07:53:01.404Z,64
2016-12-25T07:54:12.439Z,60
2016-12-25T07:55:23.425Z,64
2016-12-25T07:56:34.408Z,72
2016-12-25T07:57:45.401Z,72
2016-12-25T07:58:56.584Z,64
2016-12-25T08:00:07.630Z,72
2016-12-25T08:01:18.815Z,76
2016-12-25T08:02:29.800Z,88
2016-12-25T08:03:40.797Z,96
2016-12-25T08:04:51.785Z,116
2016-12-25T08:06:02.821Z,124
2016-12-25T08:07:13.830Z,128
2016-12-25T08:08:25.024Z,124
2016-12-25T08:09:36.415Z,132
2016-12-25T08:10:47.392Z,132
2016-12-25T08:11:58.632Z,148
2016-12-25T08:13:09.618Z,140
2016-12-25T08:14:20.599Z,140
2016-12-25T08:15:31.587Z,140
2016-12-25T08:16:42.780Z,148
2016-12-25T08:17:53.813Z,164
2016-12-25T08:19:05.006Z,192
2016-12-25T08:20:16.188Z,216
2016-12-25T08:21:27.180Z,224
2016-12-25T08:22:38.158Z,264
2016-12-25T08:23:49.195Z,304
2016-12-25T08:25:00.203Z,344
2016-12-25T08:26:11.187Z,348
2016-12-25T08:27:22.373Z,376
2016-12-25T08:28:33.358Z,392
2016-12-25T08:29:44.395Z,404
2016-12-25T08:30:55.378Z,452
2016-12-25T08:32:06.363Z,540
2016-12-25T08:33:17.339Z,512
2016-12-25T08:34:28.327Z,424
2016-12-25T08:35:39.311Z,536
2016-12-25T08:36:50.292Z,480
2016-12-25T08:38:01.286Z,436
2016-12-25T08:39:12.266Z,388
2016-12-25T08:40:23.305Z,388
2016-12-25T08:41:34.292Z,376
2016-12-25T08:42:45.279Z,384
2016-12-25T08:43:56.262Z,436
2016-12-25T08:45:07.252Z,384
2016-12-25T08:46:18.237Z,376
2016-12-25T08:47:29.220Z,440
2016-12-25T08:48:40.203Z,392
2016-12-25T08:49:51.191Z,376
2016-12-25T08:51:02.170Z,388
2016-12-25T08:52:13.184Z,388
2016-12-25T08:53:24.170Z,420
2016-12-25T08:54:35.168Z,356
2016-12-25T08:55:46.147Z,352
2016-12-25T08:56:57.128Z,356
2016-12-25T08:58:08.323Z,416
2016-12-25T08:59:19.305Z,424
2016-12-25T09:00:30.286Z,456
2016-12-25T09:01:41.472Z,516
2016-12-25T09:02:52.664Z,520
2016-12-25T09:04:03.653Z,536
2016-12-25T09:05:14.689Z,548
2016-12-25T09:06:25.677Z,564
2016-12-25T09:07:36.671Z,648
2016-12-25T09:08:47.661Z,548
2016-12-25T09:09:58.646Z,624
2016-12-25T09:11:09.625Z,668
2016-12-25T09:12:20.610Z,688
2016-12-25T09:13:31.794Z,856
2016-12-25T09:14:43.023Z,880
2016-12-25T09:15:54.009Z,844
2016-12-25T09:17:04.999Z,820
2016-12-25T09:18:16.000Z,1244
2016-12-25T09:19:26.980Z,1124
2016-12-25T09:20:38.163Z,1056
2016-12-25T09:21:49.175Z,1172
2016-12-25T09:23:00.161Z,1564
2016-12-25T09:24:11.150Z,1680
2016-12-25T09:25:22.134Z,1700
2016-12-25T09:26:33.332Z,1832
2016-12-25T09:27:44.324Z,1784
2016-12-25T09:28:55.499Z,1888
2016-12-25T09:30:06.493Z,1640
2016-12-25T09:31:17.681Z,1440
2016-12-25T09:32:28.672Z,1428
2016-12-25T09:33:39.858Z,1208
2016-12-25T09:34:50.874Z,1276
2016-12-25T09:36:01.861Z,1232
2016-12-25T09:37:12.852Z,1044
2016-12-25T09:38:24.039Z,900
2016-12-25T09:39:35.017Z,896
2016-12-25T09:40:45.997Z,832
2016-12-25T09:41:56.990Z,860
2016-12-25T09:43:07.978Z,832
2016-12-25T09:44:18.979Z,748
2016-12-25T09:45:29.961Z,728
2016-12-25T09:46:40.952Z,784
2016-12-25T09:47:51.933Z,792
2016-12-25T09:49:02.920Z,624
2016-12-25T09:50:13.901Z,744
2016-12-25T09:51:24.894Z,728
2016-12-25T09:52:35.877Z,608
2016-12-25T09:53:46.862Z,604
2016-12-25T09:54:57.849Z,764
2016-12-25T09:56:08.836Z,588
2016-12-25T09:57:19.820Z,568
2016-12-25T09:58:30.802Z,600
2016-12-25T09:59:41.780Z,620
2016-12-25T10:00:52.963Z,588
2016-12-25T10:02:03.955Z,676
2016-12-25T10:03:15.133Z,744
2016-12-25T10:04:26.116Z,800
2016-12-25T10:05:37.137Z,816
2016-12-25T10:06:48.355Z,992
2016-12-25T10:07:59.339Z,852
2016-12-25T10:09:10.319Z,768
2016-12-25T10:10:21.495Z,836
2016-12-25T10:11:32.487Z,956
2016-12-25T10:12:43.674Z,1192
2016-12-25T10:13:54.664Z,1240
2016-12-25T10:15:05.645Z,1244
2016-12-25T10:16:16.638Z,1012
2016-12-25T10:17:27.622Z,780
2016-12-25T10:18:38.609Z,756
2016-12-25T10:19:49.595Z,756
2016-12-25T10:21:00.582Z,748
2016-12-25T10:22:11.577Z,872
2016-12-25T10:23:22.563Z,844
2016-12-25T10:24:33.555Z,824
2016-12-25T10:25:44.539Z,832
2016-12-25T10:26:55.523Z,960
2016-12-25T10:28:06.512Z,1112
2016-12-25T10:29:17.698Z,1184
2016-12-25T10:30:28.687Z,1176
2016-12-25T10:31:39.676Z,1120
2016-12-25T10:32:50.666Z,1340
2016-12-25T10:34:01.851Z,1228
2016-12-25T10:35:12.843Z,1156
2016-12-25T10:36:23.829Z,1052
2016-12-25T10:37:34.814Z,1128
2016-12-25T10:38:45.797Z,1220
2016-12-25T10:39:56.995Z,1248
2016-12-25T10:41:07.981Z,1244
2016-12-25T10:42:18.972Z,1064
2016-12-25T10:43:29.961Z,1096
2016-12-25T10:44:40.949Z,1060
2016-12-25T10:45:51.993Z,924
2016-12-25T10:47:02.976Z,928
2016-12-25T10:48:13.976Z,876
2016-12-25T10:49:24.959Z,900
2016-12-25T10:50:36.153Z,1008
2016-12-25T10:51:47.346Z,1000
2016-12-25T10:52:58.328Z,936
2016-12-25T10:54:09.308Z,828
2016-12-25T10:55:20.503Z,848
2016-12-25T10:56:31.486Z,840
2016-12-25T10:57:42.482Z,836
2016-12-25T10:58:53.881Z,832
2016-12-25T11:00:04.915Z,836
2016-12-25T11:01:15.914Z,844
2016-12-25T11:02:26.895Z,976
2016-12-25T11:03:37.884Z,1000
2016-12-25T11:04:48.897Z,1364
2016-12-25T11:05:59.883Z,1800
2016-12-25T11:07:10.878Z,2488
2016-12-25T11:08:21.867Z,2044
2016-12-25T11:09:32.880Z,1948
2016-12-25T11:10:43.855Z,1784
2016-12-25T11:11:54.877Z,1572
2016-12-25T11:13:06.072Z,1552
2016-12-25T11:14:17.063Z,1468
2016-12-25T11:15:28.056Z,1712
2016-12-25T11:16:39.052Z,1596
2016-12-25T11:17:50.040Z,1612
2016-12-25T11:19:01.025Z,1336
2016-12-25T11:20:12.025Z,1084
2016-12-25T11:21:23.014Z,1108
2016-12-25T11:22:34.194Z,988
2016-12-25T11:23:45.198Z,1032
2016-12-25T11:24:56.179Z,1044
2016-12-25T11:26:07.169Z,1076
2016-12-25T11:27:18.151Z,1140
2016-12-25T11:28:29.138Z,1116
2016-12-25T11:29:40.128Z,1120
2016-12-25T11:30:51.511Z,1316
2016-12-25T11:32:02.722Z,1488
2016-12-25T11:33:13.704Z,1592
2016-12-25T11:34:24.695Z,1704
2016-12-25T11:35:35.677Z,1680
2016-12-25T11:36:46.663Z,1412
2016-12-25T11:37:57.653Z,1032
2016-12-25T11:39:08.639Z,1080
2016-12-25T11:40:19.828Z,936
2016-12-25T11:41:30.816Z,864
2016-12-25T11:42:41.800Z,908
2016-12-25T11:43:52.793Z,884
2016-12-25T11:45:03.776Z,1004
2016-12-25T11:46:14.768Z,1084
2016-12-25T11:47:25.753Z,1020
2016-12-25T11:48:36.744Z,1024
2016-12-25T11:49:47.728Z,1084
2016-12-25T11:50:58.720Z,988
2016-12-25T11:52:09.723Z,960
2016-12-25T11:53:20.702Z,928
2016-12-25T11:54:31.699Z,1032
2016-12-25T11:55:42.721Z,896
2016-12-25T11:56:53.903Z,872
2016-12-25T11:58:04.891Z,984
2016-12-25T11:59:16.070Z,1104
2016-12-25T12:00:27.105Z,996
2016-12-25T12:01:38.291Z,1196
2016-12-25T12:02:49.283Z,1168
2016-12-25T12:04:00.267Z,1184
2016-12-25T12:05:11.277Z,1120
2016-12-25T12:06:22.269Z,1136
2016-12-25T12:07:33.252Z,1180
2016-12-25T12:08:44.442Z,1128
2016-12-25T12:09:55.436Z,1136
2016-12-25T12:11:06.417Z,1116
2016-12-25T12:12:17.602Z,1140
2016-12-25T12:13:28.591Z,976
2016-12-25T12:14:39.590Z,980
2016-12-25T12:15:50.570Z,964
2016-12-25T12:17:01.579Z,952
2016-12-25T12:18:12.561Z,760
2016-12-25T12:19:23.754Z,760
2016-12-25T12:20:34.739Z,748
2016-12-25T12:21:45.721Z,780
2016-12-25T12:22:56.716Z,696
2016-12-25T12:24:07.700Z,796
2016-12-25T12:25:18.737Z,860
2016-12-25T12:26:29.723Z,732
2016-12-25T12:27:40.711Z,788
2016-12-25T12:28:51.689Z,732
2016-12-25T12:30:02.678Z,832
2016-12-25T12:31:13.668Z,816
2016-12-25T12:32:24.651Z,892
2016-12-25T12:33:35.652Z,812
2016-12-25T12:34:46.636Z,736
2016-12-25T12:35:57.624Z,828
2016-12-25T12:37:08.618Z,792
2016-12-25T12:38:19.810Z,756
2016-12-25T12:39:30.797Z,792
2016-12-25T12:40:41.791Z,700
2016-12-25T12:41:52.783Z,796
2016-12-25T12:43:03.776Z,796
2016-12-25T12:44:14.769Z,672
2016-12-25T12:45:25.750Z,692
2016-12-25T12:46:36.731Z,668
2016-12-25T12:47:47.739Z,680
2016-12-25T12:48:58.728Z,692
2016-12-25T12:50:09.713Z,664
2016-12-25T12:51:20.695Z,628
2016-12-25T12:52:31.891Z,592
2016-12-25T12:53:42.864Z,624
2016-12-25T12:54:53.853Z,624
2016-12-25T12:56:05.042Z,724
2016-12-25T12:57:16.237Z,716
2016-12-25T12:58:27.429Z,660
2016-12-25T12:59:38.417Z,692
2016-12-25T13:00:49.401Z,724
2016-12-25T13:02:00.391Z,620
2016-12-25T13:03:11.386Z,644
2016-12-25T13:04:22.365Z,680
2016-12-25T13:05:33.354Z,692
2016-12-25T13:06:44.346Z,596
2016-12-25T13:07:55.335Z,596
2016-12-25T13:09:06.328Z,568
2016-12-25T13:10:17.311Z,560
2016-12-25T13:11:28.294Z,632
2016-12-25T13:12:39.279Z,584
2016-12-25T13:13:50.272Z,568
2016-12-25T13:15:01.255Z,568
2016-12-25T13:16:12.242Z,572
2016-12-25T13:17:23.223Z,696
2016-12-25T13:18:34.209Z,616
2016-12-25T13:19:45.193Z,592
2016-12-25T13:20:56.391Z,620
2016-12-25T13:22:07.372Z,624
2016-12-25T13:23:18.357Z,684
2016-12-25T13:24:29.342Z,652
2016-12-25T13:25:40.340Z,596
2016-12-25T13:26:51.330Z,560
2016-12-25T13:28:02.313Z,576
2016-12-25T13:29:13.500Z,576
2016-12-25T13:30:24.533Z,616
2016-12-25T13:31:35.525Z,508
2016-12-25T13:32:46.712Z,524
2016-12-25T13:33:57.903Z,532
2016-12-25T13:35:08.888Z,584
2016-12-25T13:36:19.866Z,576
2016-12-25T13:37:31.051Z,556
2016-12-25T13:38:42.036Z,528
2016-12-25T13:39:53.036Z,520
2016-12-25T13:41:04.028Z,516
2016-12-25T13:42:15.217Z,480
2016-12-25T13:43:26.405Z,544
2016-12-25T13:44:37.402Z,456
2016-12-25T13:45:48.388Z,440
2016-12-25T13:46:59.397Z,464
2016-12-25T13:48:10.386Z,488
2016-12-25T13:49:21.375Z,492
2016-12-25T13:50:32.357Z,464
2016-12-25T13:51:43.338Z,536
2016-12-25T13:52:54.336Z,564
2016-12-25T13:54:05.318Z,460
2016-12-25T13:55:16.299Z,480
2016-12-25T13:56:27.286Z,412
2016-12-25T13:57:38.270Z,496
2016-12-25T13:58:49.252Z,552
2016-12-25T14:00:00.239Z,564
2016-12-25T14:01:11.419Z,560
2016-12-25T14:02:22.614Z,552
2016-12-25T14:03:33.600Z,516
2016-12-25T14:04:44.587Z,528
2016-12-25T14:05:55.633Z,588
2016-12-25T14:07:06.623Z,528
2016-12-25T14:08:17.610Z,532
2016-12-25T14:09:28.607Z,608
2016-12-25T14:10:39.854Z,528
2016-12-25T14:11:50.837Z,432
2016-12-25T14:13:02.024Z,468
2016-12-25T14:14:13.006Z,404
2016-12-25T14:15:24.036Z,364
2016-12-25T14:16:35.021Z,332
2016-12-25T14:17:46.028Z,372
2016-12-25T14:18:57.215Z,372
2016-12-25T14:20:08.280Z,328
2016-12-25T14:21:19.270Z,320
2016-12-25T14:22:30.257Z,316
2016-12-25T14:23:41.450Z,324
2016-12-25T14:24:52.439Z,336
2016-12-25T14:26:03.474Z,332
2016-12-25T14:27:14.465Z,284
2016-12-25T14:28:25.651Z,288
2016-12-25T14:29:37.038Z,252
2016-12-25T14:30:48.235Z,224
2016-12-25T14:31:59.637Z,232
2016-12-25T14:33:10.625Z,208
2016-12-25T14:34:21.614Z,224
2016-12-25T14:35:32.599Z,208
2016-12-25T14:36:43.590Z,244
2016-12-25T14:37:54.580Z,204
2016-12-25T14:39:05.564Z,180
2016-12-25T14:40:16.546Z,156
2016-12-25T14:41:27.545Z,164
2016-12-25T14:42:38.535Z,168
2016-12-25T14:43:49.921Z,168
2016-12-25T14:45:00.917Z,164
2016-12-25T14:46:11.911Z,192
2016-12-25T14:47:22.900Z,180
2016-12-25T14:48:34.094Z,200
2016-12-25T14:49:45.088Z,180
2016-12-25T14:50:56.124Z,188
2016-12-25T14:52:07.520Z,204
2016-12-25T14:53:18.509Z,188
2016-12-25T14:54:29.501Z,160
2016-12-25T14:55:40.483Z,168
2016-12-25T14:56:51.473Z,152
2016-12-25T14:58:02.466Z,152
2016-12-25T14:59:13.454Z,156
2016-12-25T15:00:24.442Z,148
2016-12-25T15:01:35.629Z,128
2016-12-25T15:02:46.616Z,148
2016-12-25T15:03:57.630Z,124
2016-12-25T15:05:08.672Z,128
2016-12-25T15:06:19.661Z,112
2016-12-25T15:07:30.656Z,108
2016-12-25T15:08:41.846Z,100
2016-12-25T15:09:53.032Z,92
2016-12-25T15:11:04.020Z,96
2016-12-25T15:12:15.210Z,96
2016-12-25T15:13:26.201Z,84
2016-12-25T15:14:37.188Z,84
2016-12-25T15:15:48.228Z,60
2016-12-25T15:16:59.217Z,56
2016-12-25T15:18:10.207Z,72
2016-12-25T15:19:21.187Z,56
2016-12-25T15:20:32.226Z,52
2016-12-25T15:21:43.211Z,60
2016-12-25T15:22:54.210Z,56
2016-12-25T15:24:05.401Z,40
2016-12-25T15:25:16.385Z,32
2016-12-25T15:26:27.571Z,28
2016-12-25T15:27:38.762Z,28
2016-12-25T15:28:49.753Z,24
2016-12-25T15:30:00.750Z,24
2016-12-25T15:31:11.735Z,24
2016-12-25T15:32:22.720Z,20
2016-12-25T15:33:33.709Z,16
2016-12-25T15:34:44.898Z,16
2016-12-25T15:35:55.886Z,12
2016-12-25T15:37:06.866Z,12
2016-12-25T15:38:17.855Z,12
2016-12-25T15:39:28.845Z,12
2016-12-25T15:40:39.881Z,8
2016-12-25T15:41:50.864Z,4
2016-12-25T15:43:01.857Z,4
2016-12-25T15:44:12.854Z,4
2016-12-25T15:45:24.040Z,4
2016-12-25T15:46:35.427Z,4
2016-12-25T15:47:46.408Z,4
2016-12-25T15:48:57.597Z,4
2016-12-25T15:50:08.589Z,4
2016-12-25T15:51:19.581Z,4
2016-12-25T15:52:30.571Z,0
2016-12-25T15:53:41.557Z,4
2016-12-25T15:54:52.540Z,4
2016-12-25T15:56:03.553Z,0
2016-12-25T15:57:14.543Z,0
2016-12-25T15:58:25.535Z,0
2016-12-25T15:59:36.722Z,0
2016-12-25T16:00:47.716Z,0
2016-12-25T16:01:58.709Z,0
2016-12-25T16:03:09.898Z,0
2016-12-25T16:04:21.112Z,0
2016-12-25T16:05:32.094Z,0
2016-12-25T16:06:43.084Z,0
2016-12-25T16:07:54.064Z,0
2016-12-25T16:09:05.054Z,0
2016-12-25T16:10:16.039Z,0
2016-12-25T16:11:27.025Z,0
2016-12-25T16:12:38.214Z,0
2016-12-25T16:13:49.214Z,0
2016-12-25T16:15:00.201Z,0
2016-12-25T16:16:11.188Z,0
2016-12-25T16:17:22.169Z,0
2016-12-25T16:18:33.193Z,0
2016-12-25T16:19:44.413Z,0
2016-12-25T16:20:55.457Z,0
2016-12-25T16:22:06.444Z,0
2016-12-25T16:23:17.823Z,0
2016-12-25T16:24:28.802Z,0
2016-12-25T16:25:39.791Z,0
2016-12-25T16:26:51.006Z,0
2016-12-25T16:28:01.992Z,0
2016-12-25T16:29:12.975Z,0
2016-12-25T16:30:23.963Z,0
2016-12-25T16:31:35.148Z,0
2016-12-25T16:32:46.130Z,0
2016-12-25T16:33:57.126Z,0
2016-12-25T16:35:08.115Z,0
2016-12-25T16:36:19.309Z,0
2016-12-25T16:37:30.293Z,0
2016-12-25T16:38:41.281Z,0
2016-12-25T16:39:52.264Z,0
2016-12-25T16:41:03.251Z,0
2016-12-25T16:42:14.235Z,0
2016-12-25T16:43:25.214Z,0
2016-12-25T16:44:36.206Z,0
2016-12-25T16:45:47.207Z,0
2016-12-25T16:46:58.203Z,0
2016-12-25T16:48:09.195Z,0
2016-12-25T16:49:20.387Z,0
2016-12-25T16:50:31.381Z,0
2016-12-25T16:51:42.402Z,0
2016-12-25T16:52:53.395Z,0